Time;durP1;ratioP1;P1;durP2;ratioP2;P2;SDS_P1;SDS_P2;PMS_P1;PMS_P2;Temp;Humidity;BMP_temperature;BMP_pressure;BME280_temperature;BME280_humidity;BME280_pressure;Samples;Min_cycle;Max_cycle;Signal;HPM_P1;HPM_P2
2021/07/06 00:01:42;;;;;;;;;;;;;;;29.88;40.54;99867.00;5077052;28;847;-39
2021/07/06 00:04:07;;;;;;;;;;;;;;;29.82;40.75;99866.03;5077142;28;1976;-38
2021/07/06 00:06:32;;;;;;;;;;;;;;;29.89;40.41;99865.97;5076974;28;823;-43
2021/07/06 00:08:58;;;;;;;;;;;;;;;29.82;40.84;99848.94;5076951;28;764;-40
2021/07/06 00:11:23;;;;;;;;;;;;;;;29.73;40.73;99851.09;5077135;28;756;-41
2021/07/06 00:13:48;;;;;;;;;;;;;;;29.82;40.78;99851.66;5076675;28;1022;-40
2021/07/06 00:16:14;;;;;;;;;;;;;;;29.75;40.72;99849.00;5076560;28;818;-42
2021/07/06 00:18:39;;;;;;;;;;;;;;;29.80;40.83;99851.03;5076824;28;833;-41
2021/07/06 00:21:05;;;;;;;;;;;;;;;29.86;40.96;99841.19;5077078;28;744;-42
2021/07/06 00:23:30;;;;;;;;;;;;;;;29.88;40.74;99847.22;5076678;28;1910;-39
2021/07/06 00:25:55;;;;;;;;;;;;;;;29.78;41.08;99842.31;5076856;28;856;-40
2021/07/06 00:28:23;;;;;;;;;;;;;;;29.89;40.67;99843.44;5077088;28;910;-42
2021/07/06 00:30:49;;;;;;;;;;;;;;;29.89;40.71;99852.41;5076246;28;1006;-43
2021/07/06 00:33:14;;;;;;;;;;;;;;;29.80;40.81;99853.75;5076864;28;795;-40
2021/07/06 00:35:42;;;;;;;;;;;;;;;29.86;40.88;99847.44;5076697;28;834;-43
2021/07/06 00:38:11;;;;;;;;;;;;;;;29.77;41.13;99846.91;5076380;28;831;-43
2021/07/06 00:40:36;;;;;;;;;;;;;;;29.73;41.09;99847.56;5077195;28;866;-43
2021/07/06 00:43:01;;;;;;;;;;;;;;;29.73;41.26;99844.84;5058879;28;1955;-42
2021/07/06 00:45:27;;;;;;;;;;;;;;;29.79;41.07;99846.66;5075660;28;911;-43
2021/07/06 00:47:52;;;;;;;;;;;;;;;29.85;40.89;99853.06;5076782;28;760;-43
2021/07/06 00:50:19;;;;;;;;;;;;;;;29.74;41.12;99849.22;5077009;28;759;-42
2021/07/06 00:52:44;;;;;;;;;;;;;;;29.79;41.01;99850.22;5076247;28;1131;-43
2021/07/06 00:55:09;;;;;;;;;;;;;;;29.74;41.15;99841.94;5076461;28;839;-42
2021/07/06 00:57:35;;;;;;;;;;;;;;;29.78;40.82;99858.59;5076432;28;879;-42
2021/07/06 01:00:20;;;;;;;;;;;;;;;29.74;41.17;99857.34;5075411;28;1033;-42
2021/07/06 01:02:46;;;;;;;;;;;;;;;29.64;41.56;99861.41;5062487;28;1910;-42
2021/07/06 01:05:13;;;;;;;;;;;;;;;29.64;41.35;99861.41;5076214;28;854;-38
2021/07/06 01:07:38;;;;;;;;;;;;;;;29.88;40.89;99875.13;5076415;28;776;-43
2021/07/06 01:10:03;;;;;;;;;;;;;;;29.87;40.88;99876.22;5076499;28;926;-44
2021/07/06 01:12:31;;;;;;;;;;;;;;;29.86;41.03;99879.97;5058467;28;725;-42
2021/07/06 01:14:56;;;;;;;;;;;;;;;29.85;40.93;99874.75;5075587;28;958;-45
2021/07/06 01:17:28;;;;;;;;;;;;;;;29.92;40.65;99870.09;5076144;28;871;-41
2021/07/06 01:19:53;;;;;;;;;;;;;;;29.85;40.95;99880.16;5076232;28;806;-44
2021/07/06 01:22:28;;;;;;;;;;;;;;;29.89;40.78;99867.84;5075660;28;768;-40
2021/07/06 01:24:54;;;;;;;;;;;;;;;29.89;40.68;99875.97;5076287;28;799;-44
2021/07/06 01:27:19;;;;;;;;;;;;;;;29.93;40.75;99872.59;5078933;28;815;-43
2021/07/06 01:29:45;;;;;;;;;;;;;;;29.91;40.67;99865.75;5079426;28;1094;-43
2021/07/06 01:32:10;;;;;;;;;;;;;;;29.85;40.92;99866.63;5080591;28;818;-42
2021/07/06 01:34:38;;;;;;;;;;;;;;;29.89;40.89;99870.56;5080372;28;743;-40
2021/07/06 01:37:04;;;;;;;;;;;;;;;29.88;40.90;99866.19;5080162;28;822;-44
2021/07/06 01:39:30;;;;;;;;;;;;;;;29.90;40.76;99861.38;5080174;28;799;-43
2021/07/06 01:41:55;;;;;;;;;;;;;;;29.91;40.75;99871.16;5079797;28;867;-43
2021/07/06 01:44:24;;;;;;;;;;;;;;;29.90;40.67;99870.34;5079265;28;1909;-44
2021/07/06 01:46:49;;;;;;;;;;;;;;;29.90;40.76;99867.63;5080118;28;732;-40
2021/07/06 01:49:15;;;;;;;;;;;;;;;29.93;40.41;99869.88;5079608;28;898;-43
2021/07/06 01:51:41;;;;;;;;;;;;;;;29.84;40.98;99859.56;5079728;28;760;-44
2021/07/06 01:54:06;;;;;;;;;;;;;;;29.80;40.88;99860.00;5079707;28;1109;-43
2021/07/06 01:56:35;;;;;;;;;;;;;;;29.85;40.73;99859.31;5079549;28;768;-43
2021/07/06 01:59:00;;;;;;;;;;;;;;;29.88;40.68;99856.16;5079181;28;971;-42
2021/07/06 02:01:25;;;;;;;;;;;;;;;29.94;40.67;99866.13;5079504;28;756;-43
2021/07/06 02:03:51;;;;;;;;;;;;;;;29.79;40.99;99862.94;5079611;28;1909;-43
2021/07/06 02:06:16;;;;;;;;;;;;;;;29.82;40.84;99868.75;5079555;28;747;-44
2021/07/06 02:08:41;;;;;;;;;;;;;;;29.85;40.61;99869.34;5079626;28;811;-43
2021/07/06 02:11:08;;;;;;;;;;;;;;;29.98;40.26;99865.69;5079728;28;898;-43
2021/07/06 02:13:33;;;;;;;;;;;;;;;29.96;40.39;99873.22;5078866;28;840;-43
2021/07/06 02:15:59;;;;;;;;;;;;;;;29.83;40.64;99872.28;5078967;28;1143;-41
2021/07/06 02:18:27;;;;;;;;;;;;;;;29.94;40.29;99871.56;5079396;28;756;-43
2021/07/06 02:20:53;;;;;;;;;;;;;;;29.84;40.40;99867.69;5079414;28;819;-43
2021/07/06 02:23:19;;;;;;;;;;;;;;;29.87;40.29;99870.78;5079299;28;1910;-43
2021/07/06 02:25:44;;;;;;;;;;;;;;;29.92;39.97;99875.53;5079465;28;818;-43
2021/07/06 02:28:10;;;;;;;;;;;;;;;29.89;40.37;99867.84;5079110;28;854;-43
2021/07/06 02:30:35;;;;;;;;;;;;;;;29.84;40.37;99873.94;5078884;28;994;-43
2021/07/06 02:33:01;;;;;;;;;;;;;;;29.75;40.56;99872.56;5079251;28;807;-44
2021/07/06 02:35:28;;;;;;;;;;;;;;;29.81;40.44;99868.97;5078693;28;767;-44
2021/07/06 02:37:55;;;;;;;;;;;;;;;29.88;40.10;99864.28;5077589;28;779;-44
2021/07/06 02:40:20;;;;;;;;;;;;;;;29.90;40.19;99867.63;5079177;28;815;-44
2021/07/06 02:42:45;;;;;;;;;;;;;;;29.92;40.02;99859.25;5078944;28;1901;-41
2021/07/06 02:45:11;;;;;;;;;;;;;;;29.95;39.93;99858.81;5078385;28;950;-43
2021/07/06 02:47:36;;;;;;;;;;;;;;;29.86;39.97;99860.16;5078748;28;805;-43
2021/07/06 02:50:02;;;;;;;;;;;;;;;29.77;40.18;99856.91;5078159;28;511;-44
2021/07/06 02:52:28;;;;;;;;;;;;;;;29.78;40.24;99861.28;5078764;28;1300;-43
2021/07/06 02:54:53;;;;;;;;;;;;;;;29.81;40.32;99858.94;5078860;28;772;-43
2021/07/06 02:57:36;;;;;;;;;;;;;;;29.90;39.88;99858.66;5078118;28;867;-43
2021/07/06 03:00:05;;;;;;;;;;;;;;;29.80;40.25;99865.41;5078370;28;1144;-41
2021/07/06 03:02:30;;;;;;;;;;;;;;;29.81;40.46;99866.25;5078494;28;1977;-43
2021/07/06 03:04:55;;;;;;;;;;;;;;;29.84;40.10;99870.41;5078472;28;811;-43
2021/07/06 03:07:21;;;;;;;;;;;;;;;29.83;40.46;99872.28;5078437;28;815;-43
2021/07/06 03:09:46;;;;;;;;;;;;;;;29.88;39.97;99872.44;5078484;28;775;-43
2021/07/06 03:12:11;;;;;;;;;;;;;;;29.72;39.67;99878.41;5078804;28;792;-43
2021/07/06 03:14:37;;;;;;;;;;;;;;;29.69;38.87;99871.56;5077818;28;883;-38
2021/07/06 03:17:02;;;;;;;;;;;;;;;29.32;41.44;99881.22;5078190;28;791;-43
2021/07/06 03:19:27;;;;;;;;;;;;;;;29.27;41.61;99886.44;5077958;28;760;-32
2021/07/06 03:21:52;;;;;;;;;;;;;;;29.01;42.81;99887.44;5078290;28;919;-32
2021/07/06 03:24:18;;;;;;;;;;;;;;;29.03;41.99;99880.75;5077909;28;1906;-36
2021/07/06 03:26:43;;;;;;;;;;;;;;;28.96;42.43;99893.50;5078068;28;806;-33
2021/07/06 03:29:08;;;;;;;;;;;;;;;28.65;43.34;99892.38;5077271;28;943;-39
2021/07/06 03:31:33;;;;;;;;;;;;;;;28.79;42.81;99885.03;5077898;28;913;-39
2021/07/06 03:33:59;;;;;;;;;;;;;;;27.84;43.84;99779.84;5077861;28;756;-38
2021/07/06 03:36:24;;;;;;;;;;;;;;;28.71;43.08;99886.94;5078270;28;767;-37
2021/07/06 03:38:49;;;;;;;;;;;;;;;28.60;42.86;99888.44;5077660;28;815;-39
2021/07/06 03:41:14;;;;;;;;;;;;;;;28.73;42.68;99884.84;5077926;28;744;-39
2021/07/06 03:43:40;;;;;;;;;;;;;;;28.55;43.09;99882.84;5077160;28;1966;-38
2021/07/06 03:46:05;;;;;;;;;;;;;;;28.52;44.29;99879.72;5077131;28;955;-37
2021/07/06 03:48:30;;;;;;;;;;;;;;;28.54;43.88;99878.47;5077274;28;768;-37
2021/07/06 03:50:56;;;;;;;;;;;;;;;28.42;44.61;99878.31;5076940;28;796;-40
2021/07/06 03:53:21;;;;;;;;;;;;;;;28.40;44.72;99879.53;5077345;28;1176;-35
2021/07/06 03:55:46;;;;;;;;;;;;;;;28.43;45.01;99881.81;5077721;28;748;-37
2021/07/06 03:58:11;;;;;;;;;;;;;;;28.69;43.65;99890.91;5076454;28;1357;-38
2021/07/06 04:00:37;;;;;;;;;;;;;;;28.62;44.07;99901.75;5077004;28;986;-37
2021/07/06 04:03:02;;;;;;;;;;;;;;;27.41;43.09;99894.56;5061407;28;1910;-40
2021/07/06 04:05:27;;;;;;;;;;;;;;;23.88;52.19;99899.47;5077481;28;795;-41
2021/07/06 04:07:53;;;;;;;;;;;;;;;23.10;55.85;99903.88;5077238;28;780;-32
2021/07/06 04:10:18;;;;;;;;;;;;;;;22.62;57.28;99909.28;5077219;28;763;-31
2021/07/06 04:12:44;;;;;;;;;;;;;;;22.54;57.91;99910.13;5076868;28;771;-33
2021/07/06 04:15:10;;;;;;;;;;;;;;;21.92;59.97;99912.41;5076364;28;1002;-38
2021/07/06 04:17:35;;;;;;;;;;;;;;;21.94;60.16;99909.59;5061320;28;790;-31
2021/07/06 04:20:00;;;;;;;;;;;;;;;21.53;59.30;99903.19;5056491;28;732;-31
2021/07/06 04:22:26;;;;;;;;;;;;;;;21.45;60.59;99904.03;5057312;28;779;-34
2021/07/06 04:24:51;;;;;;;;;;;;;;;21.55;59.68;99906.53;5056988;28;1981;-36
2021/07/06 04:27:16;;;;;;;;;;;;;;;21.36;59.88;99902.31;5056521;28;772;-34
2021/07/06 04:29:42;;;;;;;;;;;;;;;21.65;63.60;99911.72;5064442;28;1006;-35
2021/07/06 04:32:07;;;;;;;;;;;;;;;24.76;56.29;99911.50;5076962;28;763;-32
2021/07/06 04:34:32;;;;;;;;;;;;;;;26.04;52.67;99900.38;5076344;28;727;-36
2021/07/06 04:36:58;;;;;;;;;;;;;;;26.25;51.92;99899.47;5076957;28;919;-31
2021/07/06 04:39:23;;;;;;;;;;;;;;;26.63;50.84;99902.81;5076632;28;795;-36
2021/07/06 04:41:48;;;;;;;;;;;;;;;26.27;52.75;99923.53;5076385;28;755;-38
2021/07/06 04:44:13;;;;;;;;;;;;;;;26.73;50.07;99903.28;5076180;28;1974;-39
2021/07/06 04:46:39;;;;;;;;;;;;;;;26.37;51.49;99918.66;5076506;28;1076;-41
2021/07/06 04:49:04;;;;;;;;;;;;;;;22.60;53.53;99898.75;5076109;28;723;-38
2021/07/06 04:51:30;;;;;;;;;;;;;;;21.51;56.08;99902.50;5076669;28;763;-33
2021/07/06 04:53:56;;;;;;;;;;;;;;;20.95;57.45;99901.25;5077067;28;1088;-38
2021/07/06 04:56:24;;;;;;;;;;;;;;;20.61;57.36;99883.34;5076087;28;794;-39
2021/07/06 04:58:50;;;;;;;;;;;;;;;20.41;57.14;99886.25;5076495;28;1034;-42
2021/07/06 05:01:15;;;;;;;;;;;;;;;20.30;57.32;99882.88;5075610;28;831;-42
2021/07/06 05:03:42;;;;;;;;;;;;;;;21.23;59.13;99903.66;5075840;28;1933;-41
2021/07/06 05:06:07;;;;;;;;;;;;;;;24.11;48.95;99898.56;5058517;28;1548;-42
2021/07/06 05:08:33;;;;;;;;;;;;;;;25.10;46.95;99911.94;5076528;28;742;-41
2021/07/06 05:10:58;;;;;;;;;;;;;;;25.73;47.18;99909.66;5090787;28;945;-39
2021/07/06 05:13:24;;;;;;;;;;;;;;;26.20;44.33;99910.03;5076371;28;855;-43
2021/07/06 05:15:50;;;;;;;;;;;;;;;25.90;43.31;99908.38;5076134;28;958;-41
2021/07/06 05:18:15;;;;;;;;;;;;;;;21.72;51.57;99909.22;5075973;28;807;-43
2021/07/06 05:20:41;;;;;;;;;;;;;;;20.71;54.43;99908.13;5076480;28;780;-40
2021/07/06 05:23:06;;;;;;;;;;;;;;;20.19;55.20;99910.69;5076130;28;1910;-40
2021/07/06 05:25:31;;;;;;;;;;;;;;;20.07;55.22;99911.91;5076206;28;759;-40
2021/07/06 05:27:56;;;;;;;;;;;;;;;20.01;54.91;99921.38;5076354;28;894;-40
2021/07/06 05:30:22;;;;;;;;;;;;;;;19.78;55.91;99924.53;5075441;28;943;-37
2021/07/06 05:32:47;;;;;;;;;;;;;;;20.21;60.42;99923.88;5075941;28;855;-40
2021/07/06 05:35:13;;;;;;;;;;;;;;;23.44;48.43;99923.31;5076191;28;842;-41
2021/07/06 05:37:38;;;;;;;;;;;;;;;24.59;46.80;99921.59;5076052;28;815;-41
2021/07/06 05:40:04;;;;;;;;;;;;;;;25.36;44.51;99926.69;5075032;28;1500;-41
2021/07/06 05:42:29;;;;;;;;;;;;;;;25.71;43.24;99927.91;5076190;28;1286;-41
2021/07/06 05:44:54;;;;;;;;;;;;;;;25.59;45.40;99933.75;5075467;28;1898;-43
2021/07/06 05:47:19;;;;;;;;;;;;;;;21.97;50.18;99938.69;5075734;28;804;-42
2021/07/06 05:49:45;;;;;;;;;;;;;;;20.47;55.01;99943.56;5076474;28;748;-41
2021/07/06 05:52:10;;;;;;;;;;;;;;;20.31;58.94;99948.66;5075287;28;1201;-43
2021/07/06 05:54:35;;;;;;;;;;;;;;;20.27;59.02;99949.94;5076123;28;720;-38
2021/07/06 05:57:01;;;;;;;;;;;;;;;20.25;61.13;99957.28;5075968;28;756;-41
2021/07/06 05:59:26;;;;;;;;;;;;;;;20.34;59.95;99960.84;5075341;28;970;-41
2021/07/06 06:01:51;;;;;;;;;;;;;;;21.31;62.11;99967.00;5075794;28;871;-39
2021/07/06 06:04:17;;;;;;;;;;;;;;;24.03;51.51;99958.59;5075641;28;1906;-38
2021/07/06 06:06:42;;;;;;;;;;;;;;;25.00;49.11;99967.91;5075652;28;748;-42
2021/07/06 06:09:08;;;;;;;;;;;;;;;25.62;48.75;99949.53;5075989;28;795;-42
2021/07/06 06:11:33;;;;;;;;;;;;;;;25.90;45.59;99956.88;5075434;28;790;-43
2021/07/06 06:13:58;;;;;;;;;;;;;;;25.72;46.57;99943.03;5079143;28;951;-37
2021/07/06 06:16:23;;;;;;;;;;;;;;;21.80;54.96;99946.72;5079629;28;807;-39
2021/07/06 06:18:54;;;;;;;;;;;;;;;20.74;56.94;99949.72;5079215;28;838;-35
2021/07/06 06:21:20;;;;;;;;;;;;;;;20.51;56.67;99950.25;5078691;28;1446;-35
2021/07/06 06:23:45;;;;;;;;;;;;;;;20.33;56.85;99947.66;5079333;28;1906;-37
2021/07/06 06:26:10;;;;;;;;;;;;;;;20.16;57.05;99948.38;5079007;28;918;-34
2021/07/06 06:28:36;;;;;;;;;;;;;;;19.95;57.34;99949.50;5079212;28;787;-36
2021/07/06 06:31:01;;;;;;;;;;;;;;;21.69;56.92;99955.88;5078641;28;939;-36
2021/07/06 06:33:27;;;;;;;;;;;;;;;23.96;49.02;99953.13;5078930;28;736;-37
2021/07/06 06:35:52;;;;;;;;;;;;;;;24.78;46.83;99959.72;5078678;28;808;-35
2021/07/06 06:38:18;;;;;;;;;;;;;;;24.93;49.68;99967.81;5079536;28;791;-37
2021/07/06 06:40:43;;;;;;;;;;;;;;;25.56;44.61;99969.13;5078648;28;794;-35
2021/07/06 06:43:08;;;;;;;;;;;;;;;24.76;45.96;99951.84;5079165;28;1898;-36
2021/07/06 06:45:33;;;;;;;;;;;;;;;21.35;55.94;99967.53;5078730;28;1003;-35
2021/07/06 06:47:59;;;;;;;;;;;;;;;20.24;56.36;99968.97;5078771;28;795;-36
2021/07/06 06:50:24;;;;;;;;;;;;;;;19.79;57.00;99960.91;5078745;28;728;-36
2021/07/06 06:52:49;;;;;;;;;;;;;;;19.71;57.61;99960.81;5078409;28;1034;-36
2021/07/06 06:55:15;;;;;;;;;;;;;;;19.64;57.80;99976.59;5078465;28;751;-36
2021/07/06 06:57:40;;;;;;;;;;;;;;;19.51;58.05;99974.31;5078765;28;776;-34
2021/07/06 07:00:06;;;;;;;;;;;;;;;19.50;58.65;99985.94;5078321;28;1034;-35
2021/07/06 07:02:32;;;;;;;;;;;;;;;19.68;63.15;99979.81;5078156;28;783;-36
2021/07/06 07:04:57;;;;;;;;;;;;;;;22.79;51.84;99977.09;5078410;28;1918;-36
2021/07/06 07:07:22;;;;;;;;;;;;;;;24.02;49.86;99983.81;5078667;28;839;-36
2021/07/06 07:09:48;;;;;;;;;;;;;;;24.82;46.07;99983.38;5078169;28;811;-35
2021/07/06 07:12:13;;;;;;;;;;;;;;;25.12;46.33;99979.88;5078323;28;859;-34
2021/07/06 07:14:39;;;;;;;;;;;;;;;25.29;48.82;99985.84;5077954;28;954;-36
2021/07/06 07:17:04;;;;;;;;;;;;;;;22.28;51.84;99980.84;5078052;28;776;-35
2021/07/06 07:19:29;;;;;;;;;;;;;;;20.34;56.30;99976.88;5078290;28;866;-33
2021/07/06 07:21:55;;;;;;;;;;;;;;;20.21;56.78;99984.44;5078140;28;772;-35
2021/07/06 07:24:20;;;;;;;;;;;;;;;22.47;51.42;99985.00;5077289;28;1979;-38
2021/07/06 07:26:45;;;;;;;;;;;;;;;24.29;46.87;99978.88;5078233;28;851;-39
2021/07/06 07:29:10;;;;;;;;;;;;;;;25.09;45.20;99985.59;5077684;28;970;-40
2021/07/06 07:31:36;;;;;;;;;;;;;;;25.53;44.55;99989.22;5077857;28;775;-37
2021/07/06 07:34:01;;;;;;;;;;;;;;;25.71;44.33;99992.53;5077982;28;871;-39
2021/07/06 07:36:26;;;;;;;;;;;;;;;26.01;43.97;99990.53;5077865;28;890;-41
2021/07/06 07:38:52;;;;;;;;;;;;;;;26.13;43.28;100001.63;5077611;28;764;-38
2021/07/06 07:41:17;;;;;;;;;;;;;;;26.19;43.14;100001.88;5077861;28;732;-42
2021/07/06 07:43:43;;;;;;;;;;;;;;;26.25;42.84;100003.78;5077660;28;1981;-42
2021/07/06 07:46:08;;;;;;;;;;;;;;;26.25;42.81;99988.44;5076987;28;1010;-39
2021/07/06 07:48:33;;;;;;;;;;;;;;;26.26;42.90;99992.81;5077865;28;752;-36
2021/07/06 07:50:58;;;;;;;;;;;;;;;26.20;43.07;99990.06;5078129;28;835;-42
2021/07/06 07:53:24;;;;;;;;;;;;;;;26.34;43.02;99991.03;5076861;28;1115;-42
2021/07/06 07:55:51;;;;;;;;;;;;;;;26.36;43.12;99995.19;5077692;28;832;-42
2021/07/06 07:58:16;;;;;;;;;;;;;;;26.31;43.26;100003.00;5077673;28;771;-38
2021/07/06 08:00:42;;;;;;;;;;;;;;;26.40;42.93;100001.03;5076828;28;974;-43
2021/07/06 08:03:07;;;;;;;;;;;;;;;26.59;42.75;99998.66;5077206;28;1913;-41
2021/07/06 08:05:32;;;;;;;;;;;;;;;26.60;42.79;100003.88;5077280;28;823;-34
2021/07/06 08:07:57;;;;;;;;;;;;;;;26.52;42.77;100001.31;5076592;28;1420;-36
2021/07/06 08:10:23;;;;;;;;;;;;;;;26.66;42.54;100010.31;5077576;28;823;-39
2021/07/06 08:12:48;;;;;;;;;;;;;;;26.67;42.59;100020.09;5076970;28;807;-40
2021/07/06 08:15:13;;;;;;;;;;;;;;;26.76;42.95;100015.34;5076616;28;946;-37
2021/07/06 08:17:39;;;;;;;;;;;;;;;26.78;42.35;100024.09;5076836;28;821;-39
2021/07/06 08:20:04;;;;;;;;;;;;;;;26.90;42.36;100022.50;5057115;28;728;-42
2021/07/06 08:22:30;;;;;;;;;;;;;;;26.76;42.43;100018.03;5056970;28;795;-40
2021/07/06 08:24:55;;;;;;;;;;;;;;;26.64;42.29;100010.50;5056380;28;1949;-43
2021/07/06 08:27:20;;;;;;;;;;;;;;;26.78;42.06;100021.38;5056931;28;831;-43
2021/07/06 08:29:46;;;;;;;;;;;;;;;26.83;42.50;100010.00;5065147;28;963;-42
2021/07/06 08:32:11;;;;;;;;;;;;;;;26.83;42.36;100005.44;5076656;28;772;-43
2021/07/06 08:34:36;;;;;;;;;;;;;;;26.75;42.05;99997.50;5076566;28;771;-42
2021/07/06 08:37:01;;;;;;;;;;;;;;;26.79;42.32;99996.09;5076889;28;795;-41
2021/07/06 08:39:27;;;;;;;;;;;;;;;26.70;42.58;99997.25;5076521;28;914;-42
2021/07/06 08:41:52;;;;;;;;;;;;;;;26.80;42.51;100003.13;5076653;28;833;-41
2021/07/06 08:44:20;;;;;;;;;;;;;;;26.81;42.18;99996.69;5076239;28;1959;-44
2021/07/06 08:46:45;;;;;;;;;;;;;;;26.88;46.86;99997.59;5076524;28;827;-42
2021/07/06 08:49:11;;;;;;;;;;;;;;;26.93;49.10;99996.13;5076596;28;772;-42
2021/07/06 08:51:36;;;;;;;;;;;;;;;27.29;45.06;100010.44;5076659;28;795;-43
2021/07/06 08:54:01;;;;;;;;;;;;;;;27.09;44.17;100008.50;5057867;28;1298;-41
2021/07/06 08:56:27;;;;;;;;;;;;;;;27.13;43.89;100013.31;5076733;28;791;-39
2021/07/06 08:58:53;;;;;;;;;;;;;;;27.06;46.16;100012.44;5076227;28;974;-40
2021/07/06 09:01:27;;;;;;;;;;;;;;;27.20;46.99;100013.31;5076101;28;791;-39
2021/07/06 09:03:56;;;;;;;;;;;;;;;27.28;43.59;100025.81;5076083;28;1967;-39
2021/07/06 09:06:22;;;;;;;;;;;;;;;27.23;43.61;100029.13;5076579;28;760;-36
2021/07/06 09:08:51;;;;;;;;;;;;;;;27.23;43.21;100023.72;5076284;28;787;-40
2021/07/06 09:11:17;;;;;;;;;;;;;;;27.13;43.21;100018.69;5076375;28;751;-39
2021/07/06 09:13:42;;;;;;;;;;;;;;;27.21;42.95;100030.38;5076275;28;775;-37
2021/07/06 09:16:07;;;;;;;;;;;;;;;27.23;42.76;100049.88;5075665;28;1009;-39
2021/07/06 09:18:33;;;;;;;;;;;;;;;27.14;42.55;100041.13;5076413;28;787;-39
2021/07/06 09:21:12;;;;;;;;;;;;;;;27.02;43.00;100032.78;5076446;28;784;-43
2021/07/06 09:23:44;;;;;;;;;;;;;;;27.22;42.94;100040.97;5075704;28;1955;-41
2021/07/06 09:26:14;;;;;;;;;;;;;;;27.24;44.67;100054.25;5076306;28;781;-41
2021/07/06 09:28:43;;;;;;;;;;;;;;;27.37;46.73;100056.19;5076459;28;780;-43
2021/07/06 09:31:18;;;;;;;;;;;;;;;27.46;43.77;100054.97;5075568;28;942;-44
2021/07/06 09:33:55;;;;;;;;;;;;;;;27.49;45.21;100045.63;5076312;28;768;-43
2021/07/06 09:36:24;;;;;;;;;;;;;;;27.30;45.33;100050.75;5076117;28;1345;-42
2021/07/06 09:38:59;;;;;;;;;;;;;;;27.43;46.21;100055.38;5075355;28;736;-42
2021/07/06 09:41:25;;;;;;;;;;;;;;;27.51;46.69;100060.59;5075987;28;1436;-43
2021/07/06 09:43:50;;;;;;;;;;;;;;;27.60;45.81;100063.13;5075567;28;1953;-42
2021/07/06 09:46:15;;;;;;;;;;;;;;;27.74;43.40;100064.03;5041834;28;752;-42
2021/07/06 09:48:43;;;;;;;;;;;;;;;27.79;46.43;100060.72;5059675;28;772;-42
2021/07/06 09:51:12;;;;;;;;;;;;;;;27.83;46.18;100062.78;5059780;28;795;-42
2021/07/06 09:53:39;;;;;;;;;;;;;;;27.84;44.10;100064.44;5059663;28;1116;-43
2021/07/06 09:56:07;;;;;;;;;;;;;;;27.85;44.18;100062.59;5073072;28;827;-42
2021/07/06 09:58:32;;;;;;;;;;;;;;;27.92;45.35;100068.84;5080183;28;839;-43
2021/07/06 10:01:02;;;;;;;;;;;;;;;27.87;44.06;100061.34;5079348;28;974;-43
2021/07/06 10:03:28;;;;;;;;;;;;;;;27.81;45.50;100061.34;5079368;28;1913;-43
2021/07/06 10:05:53;;;;;;;;;;;;;;;27.96;43.90;100069.28;5059307;28;902;-37
2021/07/06 10:08:18;;;;;;;;;;;;;;;28.07;43.48;100076.78;5079474;28;811;-40
2021/07/06 10:10:44;;;;;;;;;;;;;;;28.18;42.79;100088.84;5080060;28;835;-43
2021/07/06 10:13:09;;;;;;;;;;;;;;;27.96;40.26;100080.09;5094895;28;842;-42
2021/07/06 10:15:34;;;;;;;;;;;;;;;27.66;38.70;100089.31;5079028;28;1010;-42
2021/07/06 10:18:00;;;;;;;;;;;;;;;27.42;39.37;100079.88;5079592;28;834;-42
2021/07/06 10:20:26;;;;;;;;;;;;;;;27.34;38.82;100081.72;5079068;28;811;-42
2021/07/06 10:22:52;;;;;;;;;;;;;;;27.58;39.60;100084.09;5079098;28;1956;-43
2021/07/06 10:25:17;;;;;;;;;;;;;;;27.82;40.33;100074.66;5060516;28;1450;-39
2021/07/06 10:27:45;;;;;;;;;;;;;;;27.96;40.37;100088.19;5057453;28;1671;-44
2021/07/06 10:30:15;;;;;;;;;;;;;;;28.03;40.54;100086.31;5054949;28;1533;-42
2021/07/06 10:32:41;;;;;;;;;;;;;;;28.07;40.91;100087.59;5079202;28;1324;-43
2021/07/06 10:35:07;;;;;;;;;;;;;;;28.10;41.29;100080.91;5073385;28;1223;-42
2021/07/06 10:37:32;;;;;;;;;;;;;;;28.13;42.13;100087.81;5079278;28;779;-41
2021/07/06 10:40:16;;;;;;;;;;;;;;;28.07;41.63;100082.19;5078033;28;1103;-41
2021/07/06 10:42:42;;;;;;;;;;;;;;;27.82;41.09;100077.34;5079011;28;791;-43
2021/07/06 10:45:13;;;;;;;;;;;;;;;27.95;41.42;100081.09;5078219;28;1902;-39
2021/07/06 10:47:39;;;;;;;;;;;;;;;27.93;41.58;100081.31;5079017;28;839;-38
2021/07/06 10:50:23;;;;;;;;;;;;;;;28.01;41.62;100095.69;5078736;28;844;-37
2021/07/06 10:52:49;;;;;;;;;;;;;;;28.06;40.92;100080.50;5078572;28;1115;-35
2021/07/06 10:55:40;;;;;;;;;;;;;;;28.07;41.41;100089.44;5078685;28;815;-34
2021/07/06 10:58:06;;;;;;;;;;;;;;;28.15;41.17;100091.13;5074070;28;1828;-34
2021/07/06 11:00:41;;;;;;;;;;;;;;;28.19;41.15;100101.34;5077775;28;974;-34
2021/07/06 11:03:13;;;;;;;;;;;;;;;28.32;41.53;100094.25;5078727;28;1917;-41
2021/07/06 11:05:39;;;;;;;;;;;;;;;28.54;42.09;100103.03;5077999;28;834;-43
2021/07/06 11:08:04;;;;;;;;;;;;;;;28.61;41.18;100105.75;5079079;28;775;-44
2021/07/06 11:10:33;;;;;;;;;;;;;;;28.70;40.78;100104.47;5078517;28;819;-38
2021/07/06 11:13:10;;;;;;;;;;;;;;;28.64;41.23;100099.06;5078199;28;821;-36
2021/07/06 11:15:36;;;;;;;;;;;;;;;28.69;41.18;100107.41;5077783;28;1108;-39
2021/07/06 11:18:04;;;;;;;;;;;;;;;28.73;41.34;100101.34;5077772;28;1334;-43
2021/07/06 11:20:45;;;;;;;;;;;;;;;28.78;40.96;100106.13;5077841;28;776;-39
2021/07/06 11:23:29;;;;;;;;;;;;;;;28.56;43.01;100100.94;5078316;28;1913;-40
2021/07/06 11:25:59;;;;;;;;;;;;;;;28.43;43.68;100104.47;5078064;28;807;-42
2021/07/06 11:28:25;;;;;;;;;;;;;;;28.41;43.52;100103.84;5078221;28;754;-42
2021/07/06 11:30:50;;;;;;;;;;;;;;;28.53;43.14;100098.66;5078703;28;958;-40
2021/07/06 11:33:16;;;;;;;;;;;;;;;28.59;41.95;100105.13;5077925;28;734;-42
2021/07/06 11:35:42;;;;;;;;;;;;;;;28.57;41.28;100096.38;5075206;28;769;-42
2021/07/06 11:38:11;;;;;;;;;;;;;;;28.63;41.08;100100.94;5058169;28;766;-38
2021/07/06 11:40:37;;;;;;;;;;;;;;;28.68;40.91;100106.56;5058430;28;799;-42
2021/07/06 11:43:02;;;;;;;;;;;;;;;28.71;41.24;100103.44;5057723;28;1902;-37
2021/07/06 11:45:28;;;;;;;;;;;;;;;28.73;41.53;100105.94;5071553;28;1067;-42
2021/07/06 11:48:22;;;;;;;;;;;;;;;28.62;40.55;100103.84;5077653;28;1330;-42
2021/07/06 11:50:48;;;;;;;;;;;;;;;28.88;40.69;100107.59;5063951;28;1245;-40
2021/07/06 11:53:13;;;;;;;;;;;;;;;28.93;40.72;100105.06;5076500;28;1200;-40
2021/07/06 11:55:39;;;;;;;;;;;;;;;28.99;40.78;100095.31;5071246;28;782;-42
2021/07/06 11:58:06;;;;;;;;;;;;;;;29.00;40.35;100100.50;5057347;28;787;-39
2021/07/06 12:00:32;;;;;;;;;;;;;;;28.99;39.77;100095.31;5072216;28;1027;-42
2021/07/06 12:03:18;;;;;;;;;;;;;;;28.89;40.19;100109.25;5077520;28;1898;-39
2021/07/06 12:05:46;;;;;;;;;;;;;;;28.89;40.39;100093.84;5063176;28;1616;-39
2021/07/06 12:08:15;;;;;;;;;;;;;;;28.05;45.60;100089.66;5076203;28;961;-37
2021/07/06 12:10:59;;;;;;;;;;;;;;;26.72;40.49;100087.78;5059330;28;751;-40
2021/07/06 12:13:25;;;;;;;;;;;;;;;25.86;39.42;100082.22;5076861;28;807;-43
2021/07/06 12:15:51;;;;;;;;;;;;;;;25.64;42.70;100079.47;5076904;28;1002;-44
2021/07/06 12:18:16;;;;;;;;;;;;;;;25.52;44.12;100076.44;5077224;28;755;-44
2021/07/06 12:20:42;;;;;;;;;;;;;;;25.39;45.19;100085.16;5076512;28;808;-40
2021/07/06 12:23:07;;;;;;;;;;;;;;;25.42;45.77;100074.00;5077144;28;1965;-40
2021/07/06 12:25:32;;;;;;;;;;;;;;;24.58;47.66;100078.59;5059523;28;768;-42
2021/07/06 12:27:58;;;;;;;;;;;;;;;20.92;59.73;100062.78;5076511;28;724;-42
2021/07/06 12:30:23;;;;;;;;;;;;;;;20.40;62.19;100059.06;5076623;28;955;-47
2021/07/06 12:33:07;;;;;;;;;;;;;;;20.28;63.23;100066.50;5077134;28;835;-45
2021/07/06 12:35:33;;;;;;;;;;;;;;;20.38;64.11;100063.72;5076308;28;872;-46
2021/07/06 12:38:02;;;;;;;;;;;;;;;20.21;64.95;100068.09;5059310;28;827;-41
2021/07/06 12:40:29;;;;;;;;;;;;;;;22.98;58.06;100064.38;5076356;28;2008;-39
2021/07/06 12:42:54;;;;;;;;;;;;;;;22.27;57.37;100065.75;5074922;28;1913;-43
2021/07/06 12:45:19;;;;;;;;;;;;;;;20.33;62.41;100070.53;5076397;28;1018;-40
2021/07/06 12:47:45;;;;;;;;;;;;;;;20.12;64.21;100069.00;5075898;28;860;-40
2021/07/06 12:50:19;;;;;;;;;;;;;;;20.06;64.65;100063.28;5076566;28;755;-39
2021/07/06 12:53:09;;;;;;;;;;;;;;;20.07;65.23;100064.09;5076632;28;1084;-39
2021/07/06 12:55:36;;;;;;;;;;;;;;;19.90;65.77;100055.91;5066715;28;1779;-45
2021/07/06 12:58:01;;;;;;;;;;;;;;;20.31;67.29;100074.19;5076101;28;865;-39